createdAt,value
2019-02-05T00:09:16.055Z,99199.47
2019-02-05T00:13:21.810Z,99185.58
2019-02-05T00:17:27.495Z,99170.84
2019-02-05T00:21:33.188Z,99180.77
2019-02-05T00:25:38.856Z,99173.77
2019-02-05T00:29:45.027Z,99187.34
2019-02-05T00:33:50.729Z,99198.41
2019-02-05T00:38:17.187Z,99206.57
2019-02-05T00:42:23.272Z,99203.28
2019-02-05T00:46:28.987Z,99212.42
2019-02-05T00:50:34.659Z,99207.69
2019-02-05T00:54:40.359Z,99223.67
2019-02-05T00:59:19.459Z,99217.75
2019-02-05T01:08:22.138Z,99194.51
2019-02-05T01:12:28.793Z,99188.50
2019-02-05T01:16:34.502Z,99186.58
2019-02-05T01:20:40.485Z,99184.25
2019-02-05T01:24:46.196Z,99184.23
2019-02-05T01:28:51.888Z,99184.06
2019-02-05T01:33:16.077Z,99186.34
2019-02-05T01:37:21.755Z,99175.13
2019-02-05T01:41:27.628Z,99180.84
2019-02-05T01:45:33.381Z,99175.92
2019-02-05T01:49:39.139Z,99176.06
2019-02-05T01:53:44.814Z,99170.55
2019-02-05T01:57:50.650Z,99159.70
2019-02-05T02:01:56.358Z,99145.15
2019-02-05T02:06:02.050Z,99144.38
2019-02-05T02:10:26.507Z,99136.69
2019-02-05T02:14:32.216Z,99140.91
2019-02-05T02:18:37.886Z,99138.34
2019-02-05T02:23:16.934Z,99140.39
2019-02-05T02:27:22.630Z,99136.28
2019-02-05T02:31:28.599Z,99132.25
2019-02-05T02:35:34.595Z,99125.91
2019-02-05T02:39:41.240Z,99122.34
2019-02-05T02:43:46.921Z,99122.77
2019-02-05T02:47:54.260Z,99125.91
2019-02-05T02:51:59.940Z,99123.05
2019-02-05T02:56:17.747Z,99109.53
2019-02-05T03:00:24.424Z,99102.06
2019-02-05T03:04:30.597Z,99098.01
2019-02-05T03:08:36.422Z,99107.55
2019-02-05T03:12:42.383Z,99108.53
2019-02-05T03:16:48.074Z,99097.34
2019-02-05T03:25:23.975Z,99098.39
2019-02-05T03:29:29.664Z,99098.84
2019-02-05T03:44:19.613Z,99130.22
2019-02-05T03:48:25.696Z,99130.02
2019-02-05T03:52:36.082Z,99122.96
2019-02-05T03:57:30.452Z,99120.81
2019-02-05T04:02:16.181Z,99130.88
2019-02-05T04:07:17.019Z,99126.94
2019-02-05T04:11:33.310Z,99136.16
2019-02-05T04:15:55.219Z,99118.46
2019-02-05T04:20:14.417Z,99125.88
2019-02-05T04:24:36.793Z,99133.09
2019-02-05T04:29:09.913Z,99130.09
2019-02-05T04:33:36.114Z,99136.86
2019-02-05T04:37:58.198Z,99142.51
2019-02-05T04:42:29.169Z,99153.48
2019-02-05T04:47:03.211Z,99151.36
2019-02-05T04:51:16.206Z,99149.37
2019-02-05T04:56:01.445Z,99154.75
2019-02-05T05:00:48.036Z,99153.00
2019-02-05T05:05:03.847Z,99155.44
2019-02-05T05:09:16.803Z,99157.89
2019-02-05T05:13:22.532Z,99157.11
2019-02-05T05:17:28.573Z,99169.89
2019-02-05T05:21:34.393Z,99166.52
2019-02-05T05:25:40.312Z,99165.05
2019-02-05T05:29:46.724Z,99171.53
2019-02-05T05:33:52.417Z,99165.50
2019-02-05T05:37:58.288Z,99175.48
2019-02-05T05:42:03.991Z,99182.67
2019-02-05T05:46:09.664Z,99180.80
2019-02-05T05:50:16.458Z,99188.32
2019-02-05T05:54:22.135Z,99187.88
2019-02-05T05:58:27.895Z,99191.15
2019-02-05T06:02:33.954Z,99185.22
2019-02-05T06:06:39.628Z,99185.23
2019-02-05T06:10:45.383Z,99191.45
2019-02-05T06:14:51.092Z,99198.17
2019-02-05T06:18:56.812Z,99201.52
2019-02-05T06:23:02.497Z,99213.16
2019-02-05T06:27:08.255Z,99217.36
2019-02-05T06:31:13.948Z,99218.91
2019-02-05T06:35:19.647Z,99227.91
2019-02-05T06:39:25.466Z,99228.99
2019-02-05T06:43:31.152Z,99232.47
2019-02-05T06:47:37.098Z,99240.65
2019-02-05T06:51:42.868Z,99249.34
2019-02-05T06:55:49.544Z,99248.47
2019-02-05T06:59:55.239Z,99250.07
2019-02-05T07:04:00.916Z,99247.80
2019-02-05T07:08:06.784Z,99247.55
2019-02-05T07:12:12.614Z,99243.58
2019-02-05T07:16:18.388Z,99253.22
2019-02-05T07:20:24.188Z,99257.13
2019-02-05T07:24:30.240Z,99269.98
2019-02-05T07:28:36.904Z,99271.18
2019-02-05T07:32:42.598Z,99282.17
2019-02-05T07:36:48.290Z,99275.68
2019-02-05T07:40:53.994Z,99273.17
2019-02-05T07:44:59.666Z,99277.33
2019-02-05T07:49:05.431Z,99271.14
2019-02-05T07:53:11.269Z,99273.97
2019-02-05T07:57:17.069Z,99284.48
2019-02-05T08:01:22.762Z,99287.19
2019-02-05T08:05:36.144Z,99278.98
2019-02-05T08:09:41.817Z,99278.31
2019-02-05T08:13:47.512Z,99277.20
2019-02-05T08:17:53.636Z,99290.44
2019-02-05T08:21:59.321Z,99300.23
2019-02-05T08:26:05.531Z,99289.73
2019-02-05T08:30:24.524Z,99278.36
2019-02-05T08:34:30.645Z,99270.50
2019-02-05T08:38:36.441Z,99272.14
2019-02-05T08:42:42.131Z,99274.05
2019-02-05T08:46:47.807Z,99274.95
2019-02-05T08:50:55.296Z,99275.55
2019-02-05T08:55:01.003Z,99286.27
2019-02-05T08:59:06.927Z,99289.95
2019-02-05T09:03:13.517Z,99304.80
2019-02-05T09:07:19.208Z,99311.28
2019-02-05T09:11:24.977Z,99303.55
2019-02-05T09:15:30.669Z,99310.62
2019-02-05T09:19:36.359Z,99306.52
2019-02-05T09:23:42.082Z,99312.14
2019-02-05T09:27:47.775Z,99312.13
2019-02-05T09:31:54.528Z,99317.52
2019-02-05T09:36:00.235Z,99301.28
2019-02-05T09:40:17.147Z,99301.67
2019-02-05T09:44:22.918Z,99307.89
2019-02-05T09:48:28.619Z,99303.41
2019-02-05T09:52:34.319Z,99307.63
2019-02-05T09:56:40.030Z,99304.11
2019-02-05T10:00:45.810Z,99319.09
2019-02-05T10:04:51.488Z,99320.45
2019-02-05T10:08:57.206Z,99329.95
2019-02-05T10:13:02.979Z,99330.50
2019-02-05T10:17:08.862Z,99335.09
2019-02-05T10:21:14.632Z,99328.05
2019-02-05T10:25:20.531Z,99333.17
2019-02-05T10:29:26.245Z,99328.95
2019-02-05T10:33:32.273Z,99321.80
2019-02-05T10:37:38.036Z,99322.19
2019-02-05T10:41:43.741Z,99321.28
2019-02-05T10:45:49.515Z,99306.34
2019-02-05T10:49:55.195Z,99303.97
2019-02-05T10:54:00.901Z,99305.59
2019-02-05T10:58:07.217Z,99308.16
2019-02-05T11:07:43.518Z,99308.49
2019-02-05T11:11:49.204Z,99297.80
2019-02-05T11:15:54.976Z,99301.09
2019-02-05T11:20:00.672Z,99295.05
2019-02-05T11:24:06.675Z,99291.02
2019-02-05T11:28:12.449Z,99279.94
2019-02-05T11:32:18.213Z,99283.27
2019-02-05T11:36:23.993Z,99282.16
2019-02-05T11:40:33.946Z,99282.09
2019-02-05T11:44:39.637Z,99288.98
2019-02-05T11:48:45.595Z,99290.76
2019-02-05T11:52:51.365Z,99286.70
2019-02-05T11:56:57.080Z,99286.42
2019-02-05T12:01:04.044Z,99278.33
2019-02-05T12:05:09.992Z,99273.95
2019-02-05T12:09:20.910Z,99266.80
2019-02-05T12:13:26.612Z,99266.53
2019-02-05T12:17:32.341Z,99263.27
2019-02-05T12:21:38.176Z,99261.13
2019-02-05T12:25:44.434Z,99258.72
2019-02-05T12:29:50.191Z,99245.25
2019-02-05T12:33:56.265Z,99255.01
2019-02-05T12:38:02.106Z,99254.69
2019-02-05T12:42:07.803Z,99248.09
2019-02-05T12:46:13.607Z,99255.44
2019-02-05T12:50:22.879Z,99256.19
2019-02-05T12:54:28.583Z,99254.79
2019-02-05T12:58:34.391Z,99245.69
2019-02-05T13:02:41.065Z,99249.43
2019-02-05T13:06:46.897Z,99251.53
2019-02-05T13:10:53.515Z,99249.72
2019-02-05T13:14:59.223Z,99248.34
2019-02-05T13:19:05.339Z,99232.84
2019-02-05T13:23:10.993Z,99233.42
2019-02-05T13:27:16.672Z,99232.52
2019-02-05T13:31:22.386Z,99234.05
2019-02-05T13:35:29.112Z,99233.43
2019-02-05T13:39:35.052Z,99223.39
2019-02-05T13:43:40.755Z,99220.36
2019-02-05T13:47:46.485Z,99226.02
2019-02-05T13:51:52.258Z,99228.38
2019-02-05T13:55:58.031Z,99230.48
2019-02-05T14:00:05.827Z,99239.41
2019-02-05T14:04:11.523Z,99234.03
2019-02-05T14:08:17.413Z,99225.57
2019-02-05T14:12:42.468Z,99230.50
2019-02-05T14:16:48.251Z,99229.16
2019-02-05T14:20:54.043Z,99232.89
2019-02-05T14:24:59.734Z,99232.71
2019-02-05T14:29:05.499Z,99226.48
2019-02-05T14:33:11.452Z,99234.67
2019-02-05T14:37:17.153Z,99229.45
2019-02-05T14:41:22.897Z,99232.38
2019-02-05T14:45:28.598Z,99230.06
2019-02-05T14:49:35.745Z,99230.81
2019-02-05T14:53:41.458Z,99231.99
2019-02-05T14:57:47.351Z,99226.56
2019-02-05T15:01:53.131Z,99228.89
2019-02-05T15:05:58.823Z,99227.54
2019-02-05T15:10:10.321Z,99229.67
2019-02-05T15:14:16.017Z,99228.30
2019-02-05T15:18:21.962Z,99230.45
2019-02-05T15:22:27.918Z,99226.55
2019-02-05T15:26:33.619Z,99224.98
2019-02-05T15:30:42.021Z,99229.40
2019-02-05T15:34:47.713Z,99230.35
2019-02-05T15:38:53.397Z,99226.68
2019-02-05T15:42:59.067Z,99232.29
2019-02-05T15:47:04.999Z,99226.81
2019-02-05T15:51:10.638Z,99223.11
2019-02-05T15:55:20.928Z,99219.38
2019-02-05T15:59:25.221Z,99221.08
2019-02-05T16:03:30.889Z,99223.72
2019-02-05T16:07:37.355Z,99223.28
2019-02-05T16:11:43.266Z,99218.00
2019-02-05T16:15:49.940Z,99222.41
2019-02-05T16:19:55.599Z,99219.23
2019-02-05T16:24:01.282Z,99221.28
2019-02-05T16:28:07.059Z,99234.86
2019-02-05T16:32:17.801Z,99239.26
2019-02-05T16:36:20.280Z,99242.88
2019-02-05T16:40:32.917Z,99245.28
2019-02-05T16:44:38.599Z,99245.66
2019-02-05T16:48:44.288Z,99254.94
2019-02-05T16:52:51.096Z,99254.71
2019-02-05T16:56:56.808Z,99253.64
2019-02-05T17:01:02.551Z,99260.80
2019-02-05T17:05:08.929Z,99260.66
2019-02-05T17:09:16.284Z,99262.92
2019-02-05T17:13:21.962Z,99264.88
2019-02-05T17:17:27.668Z,99262.53
2019-02-05T17:21:33.420Z,99261.92
2019-02-05T17:25:39.202Z,99258.83
2019-02-05T17:29:45.107Z,99256.86
2019-02-05T17:33:50.738Z,99259.50
2019-02-05T17:37:56.491Z,99258.54
2019-02-05T17:42:02.183Z,99257.98
2019-02-05T17:46:07.997Z,99257.73
2019-02-05T17:50:14.073Z,99261.41
2019-02-05T17:54:19.774Z,99267.64
2019-02-05T17:58:26.994Z,99272.92
2019-02-05T18:02:33.488Z,99274.54
2019-02-05T18:06:40.549Z,99275.28
2019-02-05T18:10:46.319Z,99276.95
2019-02-05T18:14:51.996Z,99277.80
2019-02-05T18:18:57.925Z,99280.72
2019-02-05T18:23:03.936Z,99279.35
2019-02-05T18:27:18.564Z,99286.95
2019-02-05T18:31:24.736Z,99290.93
2019-02-05T18:35:30.638Z,99297.45
2019-02-05T18:39:36.320Z,99296.36
2019-02-05T18:43:42.015Z,99299.00
2019-02-05T18:47:48.284Z,99299.42
2019-02-05T18:51:53.986Z,99299.19
2019-02-05T18:55:59.655Z,99293.03
2019-02-05T19:05:29.819Z,99298.70
2019-02-05T19:09:35.526Z,99294.12
2019-02-05T19:13:41.252Z,99294.45
2019-02-05T19:22:38.679Z,99301.92
2019-02-05T19:26:45.474Z,99299.23
2019-02-05T19:30:52.868Z,99301.08
2019-02-05T19:34:58.619Z,99296.78
2019-02-05T19:39:06.695Z,99297.99
2019-02-05T19:43:23.395Z,99304.70
2019-02-05T19:47:29.144Z,99305.03
2019-02-05T19:51:34.904Z,99302.33
2019-02-05T19:55:41.964Z,99302.23
2019-02-05T19:59:47.694Z,99295.61
2019-02-05T20:04:17.267Z,99296.02
2019-02-05T20:08:22.981Z,99293.95
2019-02-05T20:12:28.676Z,99288.55
2019-02-05T20:16:34.462Z,99288.88
2019-02-05T20:20:40.146Z,99290.08
2019-02-05T20:24:46.567Z,99287.80
2019-02-05T20:28:52.365Z,99282.27
2019-02-05T20:32:58.172Z,99291.02
2019-02-05T20:37:03.937Z,99287.02
2019-02-05T20:41:09.728Z,99276.94
2019-02-05T20:45:17.014Z,99286.42
2019-02-05T20:49:22.711Z,99286.56
2019-02-05T20:53:47.824Z,99279.03
2019-02-05T20:57:54.042Z,99285.10
2019-02-05T21:02:19.377Z,99282.27
2019-02-05T21:06:25.059Z,99292.33
2019-02-05T21:10:33.676Z,99288.76
2019-02-05T21:14:39.361Z,99297.28
2019-02-05T21:18:45.222Z,99293.53
2019-02-05T21:24:16.786Z,99294.26
2019-02-05T21:57:15.966Z,99311.84
2019-02-05T22:02:15.468Z,99320.56
2019-02-05T22:12:18.827Z,99314.84
2019-02-05T22:23:16.795Z,99298.55
2019-02-05T22:48:19.844Z,99283.99
2019-02-05T22:52:26.050Z,99284.09
2019-02-05T22:57:16.955Z,99274.36
2019-02-05T23:01:32.926Z,99269.48
2019-02-05T23:06:16.349Z,99258.60
2019-02-05T23:10:29.503Z,99259.69
2019-02-05T23:14:35.195Z,99253.11
2019-02-05T23:18:41.242Z,99247.11
2019-02-05T23:22:47.045Z,99250.73
2019-02-05T23:26:55.851Z,99258.25
2019-02-05T23:31:01.621Z,99249.52
2019-02-05T23:35:09.486Z,99246.26
2019-02-05T23:39:15.314Z,99239.86
2019-02-05T23:43:21.263Z,99239.33
2019-02-05T23:47:27.213Z,99239.67
2019-02-05T23:51:32.943Z,99234.51
2019-02-05T23:55:38.706Z,99232.63
2019-02-05T23:59:44.372Z,99239.67
